createdAt,value
2018-07-02T00:01:36.070Z,14.10
2018-07-02T00:04:03.452Z,14.10
2018-07-02T00:07:36.247Z,14.10
2018-07-02T00:10:04.104Z,13.90
2018-07-02T00:12:31.891Z,13.90
2018-07-02T00:14:59.523Z,13.90
2018-07-02T00:17:27.131Z,13.90
2018-07-02T00:19:54.694Z,13.80
2018-07-02T00:22:22.138Z,13.70
2018-07-02T00:24:49.523Z,13.70
2018-07-02T00:27:16.869Z,13.70
2018-07-02T00:29:44.510Z,13.70
2018-07-02T00:32:12.092Z,13.70
2018-07-02T00:34:39.597Z,13.70
2018-07-02T00:37:07.220Z,13.60
2018-07-02T00:39:34.682Z,13.50
2018-07-02T00:42:02.208Z,13.60
2018-07-02T00:44:29.646Z,13.60
2018-07-02T00:46:57.122Z,13.50
2018-07-02T00:49:24.917Z,13.50
2018-07-02T00:51:52.318Z,13.50
2018-07-02T00:54:19.859Z,13.40
2018-07-02T00:56:47.205Z,13.40
2018-07-02T00:59:14.615Z,13.30
2018-07-02T01:01:41.995Z,13.40
2018-07-02T01:04:09.329Z,13.30
2018-07-02T01:06:36.686Z,13.20
2018-07-02T01:09:06.181Z,13.20
2018-07-02T01:11:34.005Z,13.10
2018-07-02T01:14:01.515Z,13.10
2018-07-02T01:16:29.217Z,13.00
2018-07-02T01:18:56.656Z,12.90
2018-07-02T01:21:24.063Z,13.00
2018-07-02T01:23:51.441Z,13.00
2018-07-02T01:26:18.830Z,12.90
2018-07-02T01:28:46.325Z,13.00
2018-07-02T01:31:13.997Z,12.90
2018-07-02T01:33:41.385Z,12.90
2018-07-02T01:36:08.960Z,13.00
2018-07-02T01:38:37.332Z,12.90
2018-07-02T01:41:04.671Z,12.90
2018-07-02T01:43:33.247Z,12.90
2018-07-02T01:46:00.916Z,12.90
2018-07-02T01:48:28.388Z,12.80
2018-07-02T01:50:56.249Z,12.80
2018-07-02T01:53:23.809Z,12.70
2018-07-02T01:55:51.112Z,12.70
2018-07-02T01:58:18.471Z,12.70
2018-07-02T02:00:45.921Z,12.70
2018-07-02T02:03:13.429Z,12.70
2018-07-02T02:05:40.800Z,12.60
2018-07-02T02:08:08.353Z,12.60
2018-07-02T02:10:35.859Z,12.50
2018-07-02T02:13:03.219Z,12.50
2018-07-02T02:15:30.607Z,12.60
2018-07-02T02:17:58.025Z,12.60
2018-07-02T02:20:25.381Z,12.40
2018-07-02T02:22:52.832Z,12.30
2018-07-02T02:25:20.256Z,12.30
2018-07-02T02:27:48.390Z,12.30
2018-07-02T02:30:15.775Z,12.30
2018-07-02T02:32:43.206Z,12.30
2018-07-02T02:35:10.574Z,12.30
2018-07-02T02:37:38.018Z,12.30
2018-07-02T02:40:05.813Z,12.20
2018-07-02T02:42:33.521Z,12.20
2018-07-02T02:45:00.864Z,12.20
2018-07-02T02:47:28.362Z,12.20
2018-07-02T02:49:56.688Z,12.10
2018-07-02T02:52:24.055Z,12.10
2018-07-02T02:54:51.350Z,12.10
2018-07-02T02:57:18.755Z,12.10
2018-07-02T02:59:46.117Z,12.00
2018-07-02T03:02:13.483Z,12.00
2018-07-02T03:04:40.860Z,12.00
2018-07-02T03:07:08.256Z,12.10
2018-07-02T03:09:35.859Z,12.10
2018-07-02T03:12:03.417Z,12.10
2018-07-02T03:14:30.877Z,12.20
2018-07-02T03:16:58.229Z,12.30
2018-07-02T03:19:25.635Z,12.20
2018-07-02T03:21:53.071Z,12.20
2018-07-02T03:24:20.407Z,12.20
2018-07-02T03:26:47.844Z,12.20
2018-07-02T03:29:15.200Z,12.20
2018-07-02T03:31:42.538Z,12.20
2018-07-02T03:36:37.199Z,12.30
2018-07-02T03:39:05.953Z,12.20
2018-07-02T03:41:33.365Z,12.20
2018-07-02T03:44:00.723Z,12.30
2018-07-02T03:49:02.232Z,12.20
2018-07-02T03:51:29.611Z,12.20
2018-07-02T03:53:56.997Z,12.40
2018-07-02T03:56:24.455Z,12.50
2018-07-02T03:58:51.797Z,12.50
2018-07-02T04:01:19.298Z,12.50
2018-07-02T04:03:46.743Z,12.50
2018-07-02T04:06:14.197Z,12.50
2018-07-02T04:08:41.639Z,12.50
2018-07-02T04:11:08.987Z,12.50
2018-07-02T04:13:36.602Z,12.60
2018-07-02T04:16:04.144Z,12.60
2018-07-02T04:18:31.518Z,12.70
2018-07-02T04:20:58.956Z,12.80
2018-07-02T04:23:26.541Z,12.90
2018-07-02T04:25:53.961Z,13.00
2018-07-02T04:28:21.427Z,13.10
2018-07-02T04:30:48.862Z,13.10
2018-07-02T04:33:16.227Z,13.20
2018-07-02T04:35:43.516Z,13.30
2018-07-02T04:38:10.818Z,13.40
2018-07-02T04:40:38.206Z,13.40
2018-07-02T04:43:05.504Z,13.60
2018-07-02T04:45:32.860Z,13.90
2018-07-02T04:48:00.324Z,14.60
2018-07-02T04:50:27.689Z,15.60
2018-07-02T04:52:55.021Z,16.20
2018-07-02T04:55:22.460Z,16.90
2018-07-02T04:57:49.868Z,17.30
2018-07-02T05:00:17.172Z,17.50
2018-07-02T05:02:44.568Z,17.90
2018-07-02T05:05:12.032Z,18.30
2018-07-02T05:07:39.430Z,18.40
2018-07-02T05:10:06.803Z,18.80
2018-07-02T05:12:34.158Z,19.10
2018-07-02T05:15:01.490Z,19.00
2018-07-02T05:17:28.829Z,19.00
2018-07-02T05:19:56.183Z,18.70
2018-07-02T05:22:23.457Z,18.30
2018-07-02T05:24:50.787Z,18.10
2018-07-02T05:27:18.086Z,18.20
2018-07-02T05:29:45.486Z,18.00
2018-07-02T05:32:13.699Z,17.40
2018-07-02T05:34:41.025Z,17.30
2018-07-02T05:37:08.349Z,17.40
2018-07-02T05:39:35.747Z,17.50
2018-07-02T05:42:03.165Z,17.20
2018-07-02T05:44:30.436Z,17.40
2018-07-02T05:46:57.864Z,17.60
2018-07-02T05:49:25.199Z,17.70
2018-07-02T05:51:52.515Z,17.70
2018-07-02T05:54:19.934Z,17.60
2018-07-02T05:56:47.394Z,17.60
2018-07-02T05:59:14.710Z,17.60
2018-07-02T06:01:42.140Z,17.70
2018-07-02T06:04:09.506Z,17.60
2018-07-02T06:06:36.805Z,17.80
2018-07-02T06:09:07.186Z,17.80
2018-07-02T06:11:34.601Z,17.80
2018-07-02T06:14:02.020Z,17.80
2018-07-02T06:16:29.480Z,18.10
2018-07-02T06:18:56.732Z,18.20
2018-07-02T06:21:24.074Z,18.30
2018-07-02T06:26:18.857Z,18.90
2018-07-02T06:28:46.136Z,20.40
2018-07-02T06:31:14.935Z,20.60
2018-07-02T06:33:43.178Z,21.40
2018-07-02T06:36:11.580Z,21.20
2018-07-02T06:41:08.087Z,21.90
2018-07-02T06:43:36.568Z,22.50
2018-07-02T06:46:06.009Z,22.70
2018-07-02T06:48:34.545Z,22.40
2018-07-02T06:51:02.615Z,23.50
2018-07-02T06:53:31.855Z,23.20
2018-07-02T06:56:00.420Z,23.80
2018-07-02T06:58:28.990Z,24.60
2018-07-02T07:00:57.941Z,25.10
2018-07-02T07:03:26.392Z,25.00
2018-07-02T07:08:23.107Z,25.80
2018-07-02T07:10:51.811Z,26.30
2018-07-02T21:09:41.397Z,19.00
2018-07-02T21:12:09.080Z,18.90
2018-07-02T21:14:36.455Z,19.00
2018-07-02T21:17:03.946Z,19.00
2018-07-02T21:19:33.956Z,19.00
2018-07-02T21:22:03.915Z,18.90
2018-07-02T21:24:33.061Z,18.70
2018-07-02T21:27:02.841Z,18.60
2018-07-02T21:29:30.472Z,18.70
2018-07-02T21:31:57.852Z,18.80
2018-07-02T21:34:25.168Z,18.70
2018-07-02T21:36:52.666Z,18.70
2018-07-02T21:39:19.996Z,18.90
2018-07-02T21:41:47.474Z,18.90
2018-07-02T21:44:15.377Z,19.00
2018-07-02T21:46:42.822Z,18.90
2018-07-02T21:49:10.155Z,18.90
2018-07-02T21:51:38.753Z,18.90
2018-07-02T21:54:07.653Z,18.90
2018-07-02T21:56:35.107Z,18.80
2018-07-02T21:59:02.574Z,18.70
2018-07-02T22:01:30.685Z,18.70
2018-07-02T22:03:58.065Z,18.60
2018-07-02T22:06:25.472Z,18.50
2018-07-02T22:08:52.869Z,18.60
2018-07-02T22:11:20.313Z,18.60
2018-07-02T22:13:47.771Z,18.60
2018-07-02T22:16:16.238Z,18.60
2018-07-02T22:18:43.682Z,18.60
2018-07-02T22:21:11.137Z,18.60
2018-07-02T22:23:38.677Z,18.50
2018-07-02T22:26:06.655Z,18.50
2018-07-02T22:28:34.129Z,18.60
2018-07-02T22:31:01.605Z,18.60
2018-07-02T22:33:29.396Z,18.60
2018-07-02T22:35:57.085Z,18.60
2018-07-02T22:38:24.630Z,18.50
2018-07-02T22:40:52.134Z,18.60
2018-07-02T22:43:19.561Z,18.70
2018-07-02T22:45:47.020Z,18.70
2018-07-02T22:48:15.340Z,18.70
2018-07-02T22:50:43.204Z,18.50
2018-07-02T22:53:10.921Z,18.40
2018-07-02T22:55:50.100Z,18.40
2018-07-02T22:58:18.100Z,18.40
2018-07-02T23:00:45.828Z,18.40
2018-07-02T23:03:13.523Z,18.30
2018-07-02T23:05:40.917Z,18.30
2018-07-02T23:08:08.325Z,18.30
2018-07-02T23:10:35.744Z,18.20
2018-07-02T23:13:03.230Z,18.20
2018-07-02T23:15:30.648Z,18.30
2018-07-02T23:17:58.022Z,18.10
2018-07-02T23:20:25.517Z,17.90
2018-07-02T23:22:58.226Z,17.90
2018-07-02T23:25:26.497Z,17.90
2018-07-02T23:27:54.015Z,17.90
2018-07-02T23:30:21.546Z,17.90
2018-07-02T23:32:49.244Z,17.80
2018-07-02T23:35:17.354Z,17.90
2018-07-02T23:37:44.675Z,18.00
2018-07-02T23:40:11.988Z,17.80
2018-07-02T23:42:39.335Z,17.80
2018-07-02T23:45:06.778Z,17.80
2018-07-02T23:47:34.165Z,17.70
2018-07-02T23:50:01.573Z,17.80
2018-07-02T23:52:28.956Z,17.80
2018-07-02T23:54:56.317Z,17.70
2018-07-02T23:57:23.744Z,17.60
2018-07-02T23:59:51.480Z,17.60
